Marathon, FL

10:12 AM EDT on September 23, 2014 (GMT -0400)
Little Venice House Rooftop | Change Station
CLOSE
Current Station
Personal Weather Station
Location: Marathon, FL
Elevation: 20 ft
Nearby Weather Stations

Elev 20 ft 24.73 °N, 81.03 °W | Updated 6 seconds ago

Rain
Rain
76.0 °F
Feels Like 76 °F
N
3.0
Wind Variable Wind from SSE
Gusts 7.0 mph

Today
High -- | Low -- °F
--% Chance of Precip.
Yesterday
High -- | Low -- °F
Precip. -- in
7:12 AM 7:19 PM
Waning Crescent, 0% visible
Pressure 30.01 in
Visibility 10.0 miles
Clouds Few 2000 ft
Overcast 11000 ft
Heat Index 76 °F
Dew Point 74 °F
Humidity 92%
Rainfall 0.76 in
Snow Depth Not available.
UV 0.0 out of 12
Pollen .50 out of 12
Air Quality Not available.
Flu Activity Not available.
METAR KNQX 231353Z 08006KT 10SM -RA FEW020 OVC110 23/22 A3002 RMK AO2 SLP163 T2 SET P0008 T02280222 $

More Conditions Fewer Conditions

Pressure 30.01 in
Visibility 10.0 miles
Clouds Few 2000 ft
Overcast 11000 ft
Heat Index 76 °F
Dew Point 74 °F
Humidity 92%
Rainfall 0.76 in
Snow Depth Not available.
UV 0.0 out of 12
Pollen .50 out of 12
Air Quality Not available.
Flu Activity Not available.
METAR KNQX 231353Z 08006KT 10SM -RA FEW020 OVC110 23/22 A3002 RMK AO2 SLP163 T2 SET P0008 T02280222 $

More Conditions Fewer Conditions

Nowcast | as of 8:43 am EDT on September 23, 2014

Through 1000 am...a swath of rain with embedded showers and thunderstorms will continue to spread northward across the Florida Keys and surrounding waters...from the outer Florida Straits of the Middle Keys...across the Lower and Middle Keys...and into the Gulf waters west of Mainland Monroe. The stronger activity will produce wind gusts near 35 mph...blinding downpours...and a few lightning strikes. Island locations from cudjoe to Key Colony Beach will be affected by moderate to heavy rain.

×

10-Day Weather Forecast

Almanac

Astronomy

Sep. 23, 2014 Rise Set
Actual Time 7:12 AM EDT 7:19 PM EDT
Civil Twilight 6:50 AM EDT 7:41 PM EDT
Nautical Twilight 6:23 AM EDT 8:08 PM EDT
Astronomical Twilight 5:57 AM EDT 8:35 PM EDT
Moon 6:37 AM EDT 6:58 PM EDT
Length of Visible Light 12h 51m
Length of Day
12h 06m
Tomorrow will be 1m 26s shorter.
Waning Crescent, 0% of the Moon is Illuminated
Today
Waning Crescent
Sep 24
New
Oct 1
First Quarter
Oct 8
Full
Oct 15
Last Quarter

Today's Extremes

State Highs State Lows

Community

WunderPhotos

Upload Photos

1,755,693 photos uploaded!

Nearby

Snow Depth

Station Depth Elevation
No new snow has been reported.

Earthquake Activity

City Distance Mag. Time & Date
No recent earthquake activity has been reported nearby.
Minimum magnitude displayed is 2.5.

Coastal Water Temperatures

Place Temperature
Vaca Key, FL 84.0 °F
Key West, FL 84.9 °F

Nearby Weather Stations